createdAt,value
2017-02-24T00:00:04.245Z,18.39
2017-02-24T00:00:45.061Z,18.36
2017-02-24T00:01:25.816Z,18.36
2017-02-24T00:02:06.539Z,18.3
2017-02-24T00:02:47.348Z,18.29
2017-02-24T00:03:28.134Z,18.33
2017-02-24T00:04:09.071Z,18.3
2017-02-24T00:04:49.893Z,18.29
2017-02-24T00:05:30.647Z,18.3
2017-02-24T00:06:11.423Z,18.35
2017-02-24T00:06:52.256Z,18.29
2017-02-24T00:09:07.930Z,18.3
2017-02-24T00:09:48.828Z,18.33
2017-02-24T00:10:29.579Z,18.21
2017-02-24T00:11:10.376Z,18.36
2017-02-24T00:11:51.225Z,18.29
2017-02-24T00:12:31.984Z,18.33
2017-02-24T00:13:12.687Z,18.27
2017-02-24T00:13:53.490Z,18.26
2017-02-24T00:14:34.261Z,18.2
2017-02-24T00:15:14.946Z,18.32
2017-02-24T00:15:55.746Z,18.32
2017-02-24T00:16:36.490Z,18.26
2017-02-24T00:17:17.247Z,18.27
2017-02-24T00:17:57.988Z,18.32
2017-02-24T00:18:38.731Z,18.35
2017-02-24T00:19:19.564Z,18.32
2017-02-24T00:20:00.362Z,18.2
2017-02-24T00:20:41.103Z,18.18
2017-02-24T00:21:21.846Z,18.27
2017-02-24T00:22:02.648Z,18.27
2017-02-24T00:22:43.393Z,18.26
2017-02-24T00:23:24.147Z,18.23
2017-02-24T00:24:04.940Z,18.25
2017-02-24T00:24:45.734Z,18.23
2017-02-24T00:25:26.604Z,18.23
2017-02-24T00:26:07.419Z,18.18
2017-02-24T00:26:48.195Z,18.27
2017-02-24T00:27:28.995Z,18.3
2017-02-24T00:28:09.805Z,18.32
2017-02-24T00:28:50.592Z,18.33
2017-02-24T00:29:31.487Z,18.33
2017-02-24T00:30:12.224Z,18.29
2017-02-24T00:30:53.064Z,18.3
2017-02-24T00:31:33.921Z,18.36
2017-02-24T00:32:14.654Z,18.32
2017-02-24T00:32:55.532Z,18.33
2017-02-24T00:33:36.258Z,18.41
2017-02-24T00:34:17.128Z,18.39
2017-02-24T00:34:57.883Z,18.35
2017-02-24T00:35:38.667Z,18.35
2017-02-24T00:36:19.431Z,18.27
2017-02-24T00:37:00.293Z,18.35
2017-02-24T00:37:41.124Z,18.3
2017-02-24T00:38:21.967Z,18.33
2017-02-24T00:39:02.843Z,18.39
2017-02-24T00:39:43.639Z,18.37
2017-02-24T00:40:24.382Z,18.37
2017-02-24T00:41:05.121Z,18.35
2017-02-24T00:41:45.916Z,18.35
2017-02-24T00:42:26.733Z,18.33
2017-02-24T00:43:07.443Z,18.32
2017-02-24T00:43:48.136Z,18.32
2017-02-24T00:44:28.880Z,18.39
2017-02-24T00:45:09.736Z,18.29
2017-02-24T00:45:50.417Z,18.37
2017-02-24T00:46:31.113Z,18.44
2017-02-24T00:47:11.952Z,18.41
2017-02-24T00:47:52.801Z,18.39
2017-02-24T00:48:33.559Z,18.35
2017-02-24T00:49:14.265Z,18.39
2017-02-24T00:49:55.047Z,18.39
2017-02-24T00:50:35.913Z,18.37
2017-02-24T00:51:16.586Z,18.39
2017-02-24T00:51:57.389Z,18.39
2017-02-24T00:52:53.188Z,18.32
2017-02-24T00:53:34.129Z,18.3
2017-02-24T00:54:14.879Z,18.32
2017-02-24T00:54:55.707Z,18.3
2017-02-24T00:55:36.425Z,18.36
2017-02-24T00:56:17.324Z,18.36
2017-02-24T00:56:58.093Z,18.36
2017-02-24T00:57:38.857Z,18.35
2017-02-24T00:58:19.680Z,18.37
2017-02-24T00:59:00.423Z,18.32
2017-02-24T00:59:41.299Z,18.35
2017-02-24T01:00:22.040Z,18.3
2017-02-24T01:01:02.897Z,18.36
2017-02-24T01:01:43.762Z,18.3
2017-02-24T01:02:24.556Z,18.35
2017-02-24T01:03:05.344Z,18.29
2017-02-24T01:03:46.127Z,18.3
2017-02-24T01:04:26.863Z,18.29
2017-02-24T01:05:07.590Z,18.36
2017-02-24T01:05:48.393Z,18.39
2017-02-24T01:06:29.221Z,18.35
2017-02-24T01:07:09.972Z,18.29
2017-02-24T01:07:50.690Z,18.27
2017-02-24T01:08:38.020Z,18.32
2017-02-24T01:09:18.844Z,18.32
2017-02-24T01:09:59.647Z,18.29
2017-02-24T01:10:40.436Z,18.36
2017-02-24T01:11:21.209Z,18.35
2017-02-24T01:12:02.087Z,18.32
2017-02-24T01:12:42.840Z,18.32
2017-02-24T01:13:23.684Z,18.36
2017-02-24T01:14:04.601Z,18.39
2017-02-24T01:14:45.359Z,18.33
2017-02-24T01:15:26.130Z,18.29
2017-02-24T01:16:06.972Z,18.3
2017-02-24T01:16:47.828Z,18.33
2017-02-24T01:17:28.548Z,18.32
2017-02-24T01:18:09.534Z,18.32
2017-02-24T01:18:50.348Z,18.35
2017-02-24T01:19:31.035Z,18.36
2017-02-24T01:20:11.846Z,18.32
2017-02-24T01:20:52.599Z,18.29
2017-02-24T01:21:33.427Z,18.27
2017-02-24T01:22:14.218Z,18.36
2017-02-24T01:22:55.025Z,18.27
2017-02-24T01:23:35.870Z,18.29
2017-02-24T01:24:16.657Z,18.33
2017-02-24T01:24:57.563Z,18.33
2017-02-24T01:25:38.307Z,18.29
2017-02-24T01:26:19.158Z,18.25
2017-02-24T01:26:59.926Z,18.33
2017-02-24T01:27:40.861Z,18.33
2017-02-24T01:28:21.655Z,18.21
2017-02-24T01:29:02.364Z,18.18
2017-02-24T01:29:43.131Z,18.29
2017-02-24T01:30:23.931Z,18.3
2017-02-24T01:31:04.776Z,18.3
2017-02-24T01:31:45.640Z,18.25
2017-02-24T01:32:26.463Z,18.33
2017-02-24T01:33:07.308Z,18.3
2017-02-24T01:33:48.160Z,18.33
2017-02-24T01:34:28.867Z,18.3
2017-02-24T01:35:09.543Z,18.33
2017-02-24T01:35:50.324Z,18.3
2017-02-24T01:36:31.075Z,18.29
2017-02-24T01:37:11.980Z,18.27
2017-02-24T01:37:52.679Z,18.27
2017-02-24T01:38:33.572Z,18.32
2017-02-24T01:39:14.365Z,18.35
2017-02-24T01:39:55.168Z,18.32
2017-02-24T01:40:35.898Z,18.33
2017-02-24T01:41:16.701Z,18.27
2017-02-24T01:41:57.550Z,18.33
2017-02-24T01:42:38.377Z,18.36
2017-02-24T01:43:19.110Z,18.35
2017-02-24T01:43:59.904Z,18.33
2017-02-24T01:44:40.584Z,18.29
2017-02-24T01:45:21.500Z,18.33
2017-02-24T01:46:02.263Z,18.29
2017-02-24T01:46:43.008Z,18.29
2017-02-24T01:47:23.764Z,18.33
2017-02-24T01:48:04.524Z,18.27
2017-02-24T01:48:45.356Z,18.33
2017-02-24T01:49:26.086Z,18.35
2017-02-24T01:50:06.947Z,18.3
2017-02-24T01:50:47.673Z,18.33
2017-02-24T01:51:28.434Z,18.32
2017-02-24T01:52:09.207Z,18.33
2017-02-24T01:52:49.959Z,18.32
2017-02-24T01:53:30.744Z,18.33
2017-02-24T01:54:11.590Z,18.33
2017-02-24T01:54:52.433Z,18.32
2017-02-24T01:55:33.107Z,18.27
2017-02-24T01:56:13.897Z,18.29
2017-02-24T01:56:54.695Z,18.29
2017-02-24T01:57:35.434Z,18.3
2017-02-24T01:58:16.206Z,18.32
2017-02-24T01:58:57.044Z,18.3
2017-02-24T01:59:37.815Z,18.35
2017-02-24T02:00:18.609Z,18.25
2017-02-24T02:00:59.342Z,18.29
2017-02-24T02:01:40.180Z,18.32
2017-02-24T02:02:20.912Z,18.36
2017-02-24T02:03:01.676Z,18.39
2017-02-24T02:03:42.628Z,18.39
2017-02-24T02:04:23.425Z,18.29
2017-02-24T02:05:04.135Z,18.36
2017-02-24T02:05:44.891Z,18.36
2017-02-24T02:06:25.679Z,18.27
2017-02-24T02:07:06.464Z,18.36
2017-02-24T02:07:47.233Z,18.36
2017-02-24T02:08:42.793Z,18.33
2017-02-24T02:09:23.675Z,18.36
2017-02-24T02:10:04.418Z,18.35
2017-02-24T02:10:45.331Z,18.35
2017-02-24T02:11:26.080Z,18.35
2017-02-24T02:12:06.855Z,18.33
2017-02-24T02:12:47.662Z,18.35
2017-02-24T02:13:28.510Z,18.3
2017-02-24T02:14:09.318Z,18.35
2017-02-24T02:14:50.106Z,18.32
2017-02-24T02:15:30.918Z,18.33
2017-02-24T02:16:11.689Z,18.26
2017-02-24T02:16:52.407Z,18.37
2017-02-24T02:17:33.130Z,18.36
2017-02-24T02:18:14.021Z,18.36
2017-02-24T02:18:54.770Z,18.33
2017-02-24T02:19:35.497Z,18.33
2017-02-24T02:20:16.310Z,18.27
2017-02-24T02:20:57.198Z,18.3
2017-02-24T02:21:37.890Z,18.32
2017-02-24T02:22:18.681Z,18.23
2017-02-24T02:22:59.473Z,18.27
2017-02-24T02:23:40.214Z,18.36
2017-02-24T02:24:21.022Z,18.32
2017-02-24T02:25:01.797Z,18.21
2017-02-24T02:25:42.700Z,18.29
2017-02-24T02:26:23.471Z,18.3
2017-02-24T02:27:04.234Z,18.32
2017-02-24T02:27:45.111Z,18.3
2017-02-24T02:28:25.848Z,18.3
2017-02-24T02:29:06.585Z,18.2
2017-02-24T02:29:47.310Z,18.33
2017-02-24T02:30:28.056Z,18.33
2017-02-24T02:31:08.797Z,18.32
2017-02-24T02:31:49.575Z,18.27
2017-02-24T02:32:30.344Z,18.32
2017-02-24T02:33:11.183Z,18.27
2017-02-24T02:33:51.887Z,18.26
2017-02-24T02:34:32.594Z,18.33
2017-02-24T02:35:13.411Z,18.3
2017-02-24T02:35:54.213Z,18.21
2017-02-24T02:36:34.971Z,18.27
2017-02-24T02:37:15.727Z,18.2
2017-02-24T02:37:56.549Z,18.21
2017-02-24T02:38:37.452Z,18.18
2017-02-24T02:39:18.183Z,18.18
2017-02-24T02:39:59.059Z,18.26
2017-02-24T02:40:39.944Z,18.3
2017-02-24T02:41:20.734Z,18.21
2017-02-24T02:42:01.494Z,18.23
2017-02-24T02:42:42.300Z,18.18
2017-02-24T02:43:23.012Z,18.23
2017-02-24T02:44:03.896Z,18.23
2017-02-24T02:44:44.723Z,18.2
2017-02-24T02:45:25.537Z,18.23
2017-02-24T02:46:06.337Z,18.27
2017-02-24T02:46:47.089Z,18.27
2017-02-24T02:47:27.992Z,18.23
2017-02-24T02:48:08.779Z,18.26
2017-02-24T02:48:49.577Z,18.27
2017-02-24T02:49:30.415Z,18.27
2017-02-24T02:50:11.223Z,18.27
2017-02-24T02:50:51.909Z,18.27
2017-02-24T02:51:32.612Z,18.29
2017-02-24T02:52:13.520Z,18.25
2017-02-24T02:52:54.287Z,18.21
2017-02-24T02:53:35.013Z,18.25
2017-02-24T02:54:15.929Z,18.27
2017-02-24T02:54:56.696Z,18.27
2017-02-24T02:55:37.437Z,18.27
2017-02-24T02:56:18.160Z,18.27
2017-02-24T02:56:58.936Z,18.25
2017-02-24T02:57:39.711Z,18.25
2017-02-24T02:58:20.506Z,18.27
2017-02-24T02:59:01.260Z,18.17
2017-02-24T02:59:42.001Z,18.26
2017-02-24T03:00:22.893Z,18.21
2017-02-24T03:01:03.809Z,18.25
2017-02-24T03:01:44.609Z,18.23
2017-02-24T03:02:25.351Z,18.25
2017-02-24T03:03:06.148Z,18.21
2017-02-24T03:03:46.865Z,18.2
2017-02-24T03:04:27.619Z,18.18
2017-02-24T03:05:08.447Z,18.25
2017-02-24T03:05:49.110Z,18.23
2017-02-24T03:06:29.981Z,18.21
2017-02-24T03:07:10.721Z,18.25
2017-02-24T03:07:51.563Z,18.21
2017-02-24T03:10:07.248Z,18.25
2017-02-24T03:10:48.156Z,18.21
2017-02-24T03:11:28.873Z,18.2
2017-02-24T03:12:09.662Z,18.2
2017-02-24T03:12:50.475Z,18.2
2017-02-24T03:13:31.249Z,18.21
2017-02-24T03:14:12.052Z,18.23
2017-02-24T03:14:52.929Z,18.23
2017-02-24T03:15:33.739Z,18.23
2017-02-24T03:16:14.552Z,18.3
2017-02-24T03:16:55.300Z,18.23
2017-02-24T03:17:36.233Z,18.23
2017-02-24T03:18:17.114Z,18.2
2017-02-24T03:18:57.914Z,18.21
2017-02-24T03:19:38.731Z,18.18
2017-02-24T03:20:19.453Z,18.21
2017-02-24T03:21:00.366Z,18.23
2017-02-24T03:21:41.130Z,18.21
2017-02-24T03:22:21.971Z,18.23
2017-02-24T03:23:02.680Z,18.25
2017-02-24T03:23:43.463Z,18.21
2017-02-24T03:24:24.329Z,18.21
2017-02-24T03:25:04.925Z,18.21
2017-02-24T03:25:45.678Z,18.21
2017-02-24T03:26:26.480Z,18.21
2017-02-24T03:27:07.330Z,18.29
2017-02-24T03:27:48.056Z,18.2
2017-02-24T03:28:28.777Z,18.25
2017-02-24T03:29:09.554Z,18.23
2017-02-24T03:29:50.374Z,18.23
2017-02-24T03:30:31.159Z,18.23
2017-02-24T03:31:11.869Z,18.27
2017-02-24T03:31:52.664Z,18.17
2017-02-24T03:32:33.490Z,18.25
2017-02-24T03:33:14.178Z,18.23
2017-02-24T03:33:54.908Z,18.2
2017-02-24T03:34:35.754Z,18.26
2017-02-24T03:35:16.527Z,18.21
2017-02-24T03:35:57.266Z,18.17
2017-02-24T03:36:37.994Z,18.2
2017-02-24T03:37:18.749Z,18.27
2017-02-24T03:37:59.643Z,18.23
2017-02-24T03:40:00.286Z,18.23
2017-02-24T03:40:41.037Z,18.2
2017-02-24T03:41:21.936Z,18.27
2017-02-24T03:42:02.708Z,18.2
2017-02-24T03:42:43.478Z,18.23
2017-02-24T03:43:24.337Z,18.25
2017-02-24T03:44:05.175Z,18.2
2017-02-24T03:44:45.986Z,18.2
2017-02-24T03:45:26.756Z,18.23
2017-02-24T03:46:07.447Z,18.27
2017-02-24T03:46:48.195Z,18.2
2017-02-24T03:47:29.014Z,18.21
2017-02-24T03:48:09.789Z,18.21
2017-02-24T03:48:50.609Z,18.23
2017-02-24T03:49:31.342Z,18.21
2017-02-24T03:50:12.178Z,18.25
2017-02-24T03:50:53.047Z,18.21
2017-02-24T03:51:33.827Z,18.2
2017-02-24T03:52:14.583Z,18.25
2017-02-24T03:52:55.332Z,18.2
2017-02-24T03:53:36.038Z,18.23
2017-02-24T03:54:16.789Z,18.23
2017-02-24T03:54:57.647Z,18.18
2017-02-24T03:55:38.383Z,18.21
2017-02-24T03:56:19.267Z,18.18
2017-02-24T03:57:01.298Z,18.21
2017-02-24T03:57:49.281Z,18.23
2017-02-24T03:58:31.810Z,18.18
2017-02-24T03:59:13.026Z,18.21
2017-02-24T03:59:53.880Z,18.17
2017-02-24T04:00:35.482Z,18.18
2017-02-24T04:01:16.937Z,18.18
2017-02-24T04:01:58.441Z,18.21
2017-02-24T04:03:58.604Z,18.18
2017-02-24T04:04:39.718Z,18.2
2017-02-24T04:05:21.189Z,18.18
2017-02-24T04:06:02.859Z,18.23
2017-02-24T04:06:45.016Z,18.23
2017-02-24T04:07:27.955Z,18.21
2017-02-24T04:08:10.160Z,18.2
2017-02-24T04:08:51.541Z,18.25
2017-02-24T04:09:34.543Z,18.23
2017-02-24T04:10:17.150Z,18.27
2017-02-24T04:10:59.202Z,18.18
2017-02-24T04:11:39.934Z,18.2
2017-02-24T04:12:21.194Z,18.2
2017-02-24T04:13:02.580Z,18.23
2017-02-24T04:13:43.569Z,18.23
2017-02-24T04:14:24.666Z,18.25
2017-02-24T04:15:05.508Z,18.21
2017-02-24T04:15:47.590Z,18.27
2017-02-24T04:16:30.112Z,18.21
2017-02-24T04:17:11.993Z,18.18
2017-02-24T04:17:52.668Z,18.2
2017-02-24T04:18:33.507Z,18.2
2017-02-24T04:19:14.330Z,18.25
2017-02-24T04:19:55.044Z,18.2
2017-02-24T04:20:35.744Z,18.2
2017-02-24T04:21:16.544Z,18.17
2017-02-24T04:21:57.312Z,18.23
2017-02-24T04:22:38.095Z,18.2
2017-02-24T04:23:18.937Z,18.2
2017-02-24T04:23:59.749Z,18.27
2017-02-24T04:24:40.555Z,18.21
2017-02-24T04:25:21.393Z,18.25
2017-02-24T04:26:02.116Z,18.25
2017-02-24T04:26:43.009Z,18.21
2017-02-24T04:27:23.737Z,18.2
2017-02-24T04:28:04.480Z,18.21
2017-02-24T04:28:45.276Z,18.26
2017-02-24T04:29:25.989Z,18.17
2017-02-24T04:30:06.752Z,18.26
2017-02-24T04:30:47.558Z,18.15
2017-02-24T04:31:28.424Z,18.17
2017-02-24T04:32:09.169Z,18.23
2017-02-24T04:32:49.966Z,18.18
2017-02-24T04:33:37.684Z,18.27
2017-02-24T04:34:18.584Z,18.23
2017-02-24T04:34:59.327Z,18.27
2017-02-24T04:35:40.124Z,18.17
2017-02-24T04:36:20.922Z,18.25
2017-02-24T04:37:01.634Z,18.2
2017-02-24T04:37:42.385Z,18.23
2017-02-24T04:38:23.767Z,18.18
2017-02-24T04:39:04.711Z,18.2
2017-02-24T04:39:45.504Z,18.2
2017-02-24T04:40:26.368Z,18.15
2017-02-24T04:41:07.120Z,18.12
2017-02-24T04:41:47.968Z,18.21
2017-02-24T04:42:28.765Z,18.2
2017-02-24T04:43:09.534Z,18.18
2017-02-24T04:43:50.318Z,18.21
2017-02-24T04:44:31.103Z,18.21
2017-02-24T04:45:12.369Z,18.21
2017-02-24T04:45:53.174Z,18.2
2017-02-24T04:46:34.608Z,18.26
2017-02-24T04:47:16.319Z,18.21
2017-02-24T04:47:57.083Z,18.27
2017-02-24T04:48:38.823Z,18.26
2017-02-24T04:49:20.400Z,18.23
2017-02-24T04:50:01.122Z,18.27
2017-02-24T04:50:42.661Z,18.25
2017-02-24T04:51:24.374Z,18.25
2017-02-24T04:52:05.058Z,18.18
2017-02-24T04:52:46.734Z,18.18
2017-02-24T04:53:28.391Z,18.17
2017-02-24T04:54:09.160Z,18.26
2017-02-24T04:54:50.660Z,18.29
2017-02-24T04:55:32.391Z,18.2
2017-02-24T04:56:13.228Z,18.26
2017-02-24T04:56:54.726Z,18.2
2017-02-24T04:57:36.384Z,18.27
2017-02-24T04:58:17.137Z,18.2
2017-02-24T04:58:58.776Z,18.18
2017-02-24T04:59:40.388Z,18.27
2017-02-24T05:00:21.194Z,18.25
2017-02-24T05:01:02.737Z,18.25
2017-02-24T05:01:44.408Z,18.25
2017-02-24T05:02:25.154Z,18.3
2017-02-24T05:03:06.695Z,18.27
2017-02-24T05:03:48.415Z,18.27
2017-02-24T05:04:29.213Z,18.18
2017-02-24T05:05:10.692Z,18.17
2017-02-24T05:05:52.381Z,18.17
2017-02-24T05:06:33.169Z,18.18
2017-02-24T05:07:14.648Z,18.11
2017-02-24T05:07:56.420Z,18.18
2017-02-24T05:08:37.173Z,18.14
2017-02-24T05:09:32.679Z,18.17
2017-02-24T05:10:13.364Z,18.23
2017-02-24T05:10:54.079Z,18.17
2017-02-24T05:11:34.875Z,18.2
2017-02-24T05:12:15.626Z,18.17
2017-02-24T05:12:56.421Z,18.2
2017-02-24T05:13:37.225Z,18.25
2017-02-24T05:14:17.953Z,18.23
2017-02-24T05:14:58.788Z,18.12
2017-02-24T05:15:39.591Z,18.12
2017-02-24T05:16:20.454Z,18.18
2017-02-24T05:17:01.206Z,18.17
2017-02-24T05:17:42.108Z,18.21
2017-02-24T05:18:22.820Z,18.14
2017-02-24T05:19:03.538Z,18.17
2017-02-24T05:19:44.370Z,18.12
2017-02-24T05:20:25.165Z,18.12
2017-02-24T05:21:06.022Z,18.17
2017-02-24T05:23:02.396Z,18.2
2017-02-24T05:23:43.165Z,18.12
2017-02-24T05:24:23.952Z,18.18
2017-02-24T05:25:04.745Z,18.14
2017-02-24T05:25:45.428Z,18.11
2017-02-24T05:26:26.414Z,18.18
2017-02-24T05:27:07.443Z,18.11
2017-02-24T05:27:48.191Z,18.14
2017-02-24T05:28:28.975Z,18.18
2017-02-24T05:29:09.783Z,18.23
2017-02-24T05:29:50.578Z,18.21
2017-02-24T05:30:31.340Z,18.14
2017-02-24T05:31:12.140Z,18.17
2017-02-24T05:31:52.818Z,18.15
2017-02-24T05:32:33.607Z,18.12
2017-02-24T05:33:14.340Z,18.2
2017-02-24T05:33:55.076Z,18.18
2017-02-24T05:34:35.896Z,18.14
2017-02-24T05:35:16.783Z,18.12
2017-02-24T05:35:57.520Z,18.18
2017-02-24T05:36:38.272Z,18.18
2017-02-24T05:37:19.185Z,18.18
2017-02-24T05:37:59.979Z,18.17
2017-02-24T05:38:40.714Z,18.21
2017-02-24T05:39:21.539Z,18.18
2017-02-24T05:40:02.381Z,18.17
2017-02-24T05:40:43.224Z,18.21
2017-02-24T05:41:23.982Z,18.17
2017-02-24T05:42:04.724Z,18.15
2017-02-24T05:42:45.505Z,18.18
2017-02-24T05:43:26.307Z,18.17
2017-02-24T05:44:07.092Z,18.23
2017-02-24T05:44:47.863Z,18.17
2017-02-24T05:45:28.599Z,18.18
2017-02-24T05:46:09.413Z,18.12
2017-02-24T05:46:50.174Z,18.12
2017-02-24T05:47:30.919Z,18.11
2017-02-24T05:48:11.733Z,18.15
2017-02-24T05:48:52.570Z,18.12
2017-02-24T05:49:33.410Z,18.11
2017-02-24T05:50:14.101Z,18.15
2017-02-24T05:50:54.966Z,18.05
2017-02-24T05:51:35.762Z,18.12
2017-02-24T05:52:16.594Z,18.08
2017-02-24T05:52:57.273Z,18.11
2017-02-24T05:53:37.926Z,18.08
2017-02-24T05:54:18.976Z,18.12
2017-02-24T05:54:59.801Z,18.11
2017-02-24T05:55:40.534Z,18.12
2017-02-24T05:56:21.251Z,18.07
2017-02-24T05:57:01.986Z,18.1
2017-02-24T05:57:42.824Z,18.08
2017-02-24T05:58:23.547Z,18.12
2017-02-24T05:59:04.334Z,18.14
2017-02-24T05:59:45.070Z,18.1
2017-02-24T06:00:25.783Z,18.08
2017-02-24T06:01:06.664Z,18.1
2017-02-24T06:01:47.425Z,18.08
2017-02-24T06:02:28.275Z,18.07
2017-02-24T06:03:09.180Z,18.11
2017-02-24T06:03:49.977Z,18.12
2017-02-24T06:04:30.677Z,18.05
2017-02-24T06:05:11.429Z,18.08
2017-02-24T06:05:52.230Z,18.08
2017-02-24T06:06:33.006Z,18.05
2017-02-24T06:07:13.850Z,18.14
2017-02-24T06:07:54.669Z,18.12
2017-02-24T06:08:35.470Z,18.11
2017-02-24T06:09:16.203Z,18.11
2017-02-24T06:09:57.043Z,18.11
2017-02-24T06:10:37.860Z,18.15
2017-02-24T06:11:18.612Z,18.17
2017-02-24T06:11:59.463Z,18.14
2017-02-24T06:12:40.185Z,18.11
2017-02-24T06:13:20.918Z,18.15
2017-02-24T06:14:01.762Z,18.1
2017-02-24T06:14:42.510Z,18.15
2017-02-24T06:15:23.310Z,18.14
2017-02-24T06:16:04.093Z,18.1
2017-02-24T06:16:44.935Z,18.18
2017-02-24T06:17:25.812Z,18.12
2017-02-24T06:18:06.548Z,18.11
2017-02-24T06:18:47.226Z,18.1
2017-02-24T06:19:27.986Z,18.14
2017-02-24T06:20:08.748Z,18.08
2017-02-24T06:20:49.574Z,18.11
2017-02-24T06:21:30.355Z,18.08
2017-02-24T06:22:11.170Z,18.17
2017-02-24T06:22:51.938Z,18.12
2017-02-24T06:23:32.694Z,18.15
2017-02-24T06:24:13.480Z,18.15
2017-02-24T06:24:54.232Z,18.12
2017-02-24T06:25:35.068Z,18.12
2017-02-24T06:26:16.105Z,18.15
2017-02-24T06:26:57.190Z,18.17
2017-02-24T06:27:38.134Z,18.12
2017-02-24T06:28:18.865Z,18.15
2017-02-24T06:28:59.651Z,18.1
2017-02-24T06:29:40.532Z,18.11
2017-02-24T06:30:21.346Z,18.11
2017-02-24T06:31:02.140Z,18.11
2017-02-24T06:31:43.022Z,18.11
2017-02-24T06:32:23.766Z,18.12
2017-02-24T06:33:04.575Z,18.14
2017-02-24T06:33:45.225Z,18.23
2017-02-24T06:34:25.943Z,18.21
2017-02-24T06:35:06.787Z,18.26
2017-02-24T06:35:47.563Z,18.21
2017-02-24T06:36:28.372Z,18.2
2017-02-24T06:37:09.266Z,18.32
2017-02-24T06:37:50.072Z,18.12
2017-02-24T06:38:30.797Z,18.14
2017-02-24T06:39:11.593Z,18.08
2017-02-24T06:39:52.372Z,18.11
2017-02-24T06:40:33.217Z,18.1
2017-02-24T06:41:13.927Z,18.07
2017-02-24T06:41:54.684Z,17.95
2017-02-24T06:42:35.500Z,17.95
2017-02-24T06:43:16.245Z,17.87
2017-02-24T06:43:57.160Z,17.93
2017-02-24T06:44:38.014Z,17.97
2017-02-24T06:45:18.789Z,17.93
2017-02-24T06:45:59.539Z,17.87
2017-02-24T06:46:40.389Z,17.96
2017-02-24T06:47:21.187Z,17.97
2017-02-24T06:48:01.978Z,17.89
2017-02-24T06:48:42.782Z,17.93
2017-02-24T06:49:23.612Z,17.95
2017-02-24T06:50:04.459Z,17.93
2017-02-24T06:50:45.296Z,17.97
2017-02-24T06:51:26.068Z,17.92
2017-02-24T06:52:06.811Z,17.95
2017-02-24T06:52:47.553Z,17.89
2017-02-24T06:53:28.320Z,17.84
2017-02-24T06:54:09.129Z,17.9
2017-02-24T06:54:49.870Z,17.95
2017-02-24T06:55:30.731Z,17.89
2017-02-24T06:56:11.495Z,17.78
2017-02-24T06:56:52.240Z,17.79
2017-02-24T06:57:33.083Z,17.97
2017-02-24T06:58:13.962Z,17.92
2017-02-24T06:58:54.659Z,17.89
2017-02-24T06:59:35.522Z,17.81
2017-02-24T07:00:16.275Z,17.92
2017-02-24T07:00:57.240Z,17.79
2017-02-24T07:01:37.958Z,17.89
2017-02-24T07:02:18.663Z,17.84
2017-02-24T07:02:59.470Z,17.84
2017-02-24T07:03:40.239Z,17.86
2017-02-24T07:04:20.941Z,17.9
2017-02-24T07:05:01.701Z,17.84
2017-02-24T07:05:42.445Z,17.84
2017-02-24T07:06:23.505Z,17.79
2017-02-24T07:07:04.291Z,17.9
2017-02-24T07:07:45.132Z,17.86
2017-02-24T07:08:25.996Z,17.89
2017-02-24T07:09:07.578Z,17.86
2017-02-24T07:09:48.373Z,17.84
2017-02-24T07:10:29.259Z,17.87
2017-02-24T07:11:10.152Z,17.89
2017-02-24T07:11:51.100Z,17.9
2017-02-24T07:12:31.981Z,17.81
2017-02-24T07:13:12.803Z,17.89
2017-02-24T07:13:53.688Z,17.9
2017-02-24T07:14:34.386Z,17.79
2017-02-24T07:15:15.297Z,17.89
2017-02-24T07:15:56.086Z,17.84
2017-02-24T07:16:36.975Z,17.93
2017-02-24T07:17:17.721Z,17.86
2017-02-24T07:17:58.504Z,17.84
2017-02-24T07:18:39.387Z,17.92
2017-02-24T07:19:20.243Z,17.87
2017-02-24T07:20:01.000Z,17.74
2017-02-24T07:20:41.730Z,17.89
2017-02-24T07:21:22.493Z,17.75
2017-02-24T07:22:03.275Z,17.86
2017-02-24T07:22:44.096Z,17.9
2017-02-24T07:23:24.878Z,17.92
2017-02-24T07:24:05.624Z,17.78
2017-02-24T07:24:46.437Z,17.9
2017-02-24T07:25:27.233Z,17.84
2017-02-24T07:26:07.984Z,17.92
2017-02-24T07:26:48.782Z,17.81
2017-02-24T07:27:29.560Z,17.87
2017-02-24T07:28:10.419Z,17.9
2017-02-24T07:28:51.180Z,17.82
2017-02-24T07:29:31.983Z,17.84
2017-02-24T07:30:12.756Z,17.84
2017-02-24T07:30:53.589Z,17.86
2017-02-24T07:31:34.451Z,17.9
2017-02-24T07:32:15.266Z,17.86
2017-02-24T07:32:56.006Z,17.77
2017-02-24T07:33:36.812Z,17.87
2017-02-24T07:34:17.500Z,17.89
2017-02-24T07:34:58.289Z,17.81
2017-02-24T07:35:39.091Z,17.75
2017-02-24T07:36:19.806Z,17.87
2017-02-24T07:37:00.684Z,17.82
2017-02-24T07:37:41.497Z,17.86
2017-02-24T07:38:22.461Z,17.9
2017-02-24T07:39:03.303Z,17.84
2017-02-24T07:39:44.088Z,17.87
2017-02-24T07:40:24.871Z,17.84
2017-02-24T07:41:05.749Z,17.86
2017-02-24T07:41:46.474Z,17.81
2017-02-24T07:42:27.247Z,17.84
2017-02-24T07:43:07.961Z,17.84
2017-02-24T07:43:48.675Z,17.81
2017-02-24T07:44:29.630Z,17.82
2017-02-24T07:45:10.344Z,17.79
2017-02-24T07:45:51.245Z,17.86
2017-02-24T07:46:32.078Z,17.79
2017-02-24T07:47:12.786Z,17.78
2017-02-24T07:47:53.662Z,17.79
2017-02-24T07:48:34.498Z,17.79
2017-02-24T07:49:15.286Z,17.84
2017-02-24T07:49:56.086Z,17.82
2017-02-24T07:50:36.871Z,17.81
2017-02-24T07:51:17.814Z,17.89
2017-02-24T07:51:58.718Z,17.87
2017-02-24T07:53:38.810Z,17.87
2017-02-24T07:54:19.635Z,17.9
2017-02-24T07:55:00.451Z,17.79
2017-02-24T07:55:41.289Z,17.87
2017-02-24T07:56:22.127Z,17.93
2017-02-24T07:57:02.892Z,17.92
2017-02-24T07:57:43.624Z,17.89
2017-02-24T07:58:24.336Z,17.92
2017-02-24T07:59:05.126Z,18
2017-02-24T07:59:45.993Z,17.99
2017-02-24T08:00:26.818Z,18.02
2017-02-24T08:01:07.572Z,18.02
2017-02-24T08:01:48.419Z,18
2017-02-24T08:02:29.223Z,17.9
2017-02-24T08:03:09.970Z,18
2017-02-24T08:05:05.279Z,17.93
2017-02-24T08:05:45.927Z,17.96
2017-02-24T08:06:26.735Z,18
2017-02-24T08:07:07.466Z,18.05
2017-02-24T08:07:48.222Z,17.93
2017-02-24T08:08:29.055Z,17.96
2017-02-24T08:09:09.860Z,17.9
2017-02-24T08:09:50.829Z,17.93
2017-02-24T08:10:31.649Z,17.97
2017-02-24T08:11:12.488Z,17.92
2017-02-24T08:11:53.196Z,17.92
2017-02-24T08:12:34.223Z,17.86
2017-02-24T08:13:14.875Z,17.93
2017-02-24T08:13:55.681Z,17.9
2017-02-24T08:14:36.540Z,17.86
2017-02-24T08:15:17.253Z,17.9
2017-02-24T08:15:58.058Z,17.97
2017-02-24T08:16:38.948Z,17.96
2017-02-24T08:18:19.154Z,17.93
2017-02-24T08:18:59.882Z,17.92
2017-02-24T08:19:40.685Z,17.97
2017-02-24T08:20:21.461Z,17.9
2017-02-24T08:21:02.376Z,17.93
2017-02-24T08:21:43.196Z,17.93
2017-02-24T08:22:25.722Z,17.9
2017-02-24T08:23:07.759Z,17.97
2017-02-24T08:23:48.756Z,17.9
2017-02-24T08:24:29.815Z,17.99
2017-02-24T08:25:10.691Z,17.95
2017-02-24T08:25:51.444Z,17.9
2017-02-24T08:26:32.228Z,17.97
2017-02-24T08:27:13.077Z,17.9
2017-02-24T08:27:53.945Z,17.93
2017-02-24T08:28:35.013Z,17.97
2017-02-24T08:29:15.738Z,17.92
2017-02-24T08:29:56.561Z,17.95
2017-02-24T08:30:37.348Z,17.96
2017-02-24T08:31:18.129Z,17.9
2017-02-24T08:31:59.088Z,17.95
2017-02-24T08:32:39.946Z,17.97
2017-02-24T08:33:20.718Z,17.89
2017-02-24T08:34:01.471Z,17.96
2017-02-24T08:34:42.215Z,17.97
2017-02-24T08:35:23.216Z,17.93
2017-02-24T08:36:03.918Z,17.92
2017-02-24T08:36:44.743Z,17.89
2017-02-24T08:37:25.451Z,17.95
2017-02-24T08:38:06.266Z,17.97
2017-02-24T08:38:47.020Z,17.93
2017-02-24T08:39:27.751Z,17.9
2017-02-24T08:40:08.460Z,17.9
2017-02-24T08:40:49.284Z,17.93
2017-02-24T08:41:30.024Z,17.93
2017-02-24T08:42:10.773Z,17.89
2017-02-24T08:42:51.532Z,17.95
2017-02-24T08:43:32.349Z,17.9
2017-02-24T08:44:13.214Z,17.89
2017-02-24T08:44:54.071Z,17.9
2017-02-24T08:45:34.827Z,17.96
2017-02-24T08:46:15.667Z,17.92
2017-02-24T08:46:56.676Z,17.95
2017-02-24T08:48:52.277Z,17.96
2017-02-24T08:49:33.089Z,17.97
2017-02-24T08:50:13.860Z,17.99
2017-02-24T08:50:54.658Z,17.89
2017-02-24T08:51:35.478Z,17.89
2017-02-24T08:52:16.228Z,17.9
2017-02-24T08:52:57.076Z,17.89
2017-02-24T08:53:37.876Z,17.96
2017-02-24T08:54:18.781Z,17.9
2017-02-24T08:54:59.557Z,17.9
2017-02-24T08:55:40.428Z,17.93
2017-02-24T08:56:21.259Z,17.99
2017-02-24T08:57:02.034Z,18.08
2017-02-24T08:57:42.862Z,18.08
2017-02-24T08:58:23.775Z,18.08
2017-02-24T08:59:04.489Z,18.1
2017-02-24T08:59:45.354Z,18.03
2017-02-24T09:00:26.201Z,18
2017-02-24T09:01:07.053Z,18.11